Choya, Argentina
Current Conditions -  °F | °C
As of 7:00 PM on Sunday 23 Nov 2014 (Local Time) from SANT Reporting Station
Few Clouds Few Clouds  
Wind Chill: 90°   Ceiling: Unl
Heat Index: 90°   Visibility: 6mi
Dew Point: 61°   Wind: 16mph
Humidity: 38%   Direction: 360°N
Pressure: 29.62"   Gusts: NA
Location:  28.5°S, 64.87°W
Report Text: SANT 232200Z 36014KT 9999 FEW040CB FEW10032/16 Q1003
Loading
Personal Weather Stations






























Interactive Weather Map New forecast layout! Learn more

10-Day Weather Forecast

Advertisements
Track Severe Weather on mobile